Latest Coastal Weather Observations for Frankston

IDV60701

Issued at 12:51 am EDT Thursday 19 January 2017 (issued every 10 minutes, with the page automatically refreshed every 10 minutes)

About coastal observations | Map of coastal stations | Coastal observations for VIC | Marine services | Other Formats
Station Details ID: 086371 Name: FRANKSTON AWS Lat: -38.15 Lon: 145.12 Height: 6.0 m
Data from the previous 72 hours. | See also: Recent months at Frankston
Date/Time
EDT
Temp
°C
Wind Pressure Rain since
9am
mm
Weather Cloud Vis
km
Sea
Height
m
Swell
Dir  Spd
kts
Gust
kts
hPa Trend Height
m
Period
s
Dir
19/12:30am 13.4 S 4 7 - - - - - - - - - -
19/12:00am 13.3 SSE 3 6 - - - - - - - - - -
 
Date/Time
EDT
Temp
°C
Wind Pressure Rain since
9am
mm
Weather Cloud Vis
km
Sea
Height
m
Swell
Dir  Spd
kts
Gust
kts
hPa Trend Height
m
Period
s
Dir
18/11:30pm 13.3 SSE 2 4 - - - - - - - - - -
18/11:00pm 13.8 CALM 0 3 - - - - - - - - - -
18/10:30pm 14.0 SSE 2 3 - - - - - - - - - -
18/10:00pm 14.4 S 2 4 - - - - - - - - - -
18/09:30pm 14.8 S 3 5 - - - - - - - - - -
18/09:00pm 15.3 S 4 7 - - - - - - - - - -
18/08:30pm 15.8 S 6 12 - - - - - - - - - -
18/08:00pm 16.6 S 7 12 - - - - - - - - - -
18/07:30pm 17.1 SSW 8 14 - - - - - - - - - -
18/07:00pm 17.4 SSW 9 14 - - - - - - - - - -
18/06:30pm 17.7 SSW 8 16 - - - - - - - - - -
18/06:00pm 17.9 SSW 8 15 - - - - - - - - - -
18/05:30pm 18.6 S 7 12 - - - - - - - - - -
18/05:00pm 19.6 SSW 7 16 - - - - - - - - - -
18/04:30pm 19.2 S 8 14 - - - - - - - - - -
18/04:00pm 19.1 S 7 13 - - - - - - - - - -
18/03:30pm 17.6 WSW 15 19 - - - - - - - - - -
18/03:00pm 17.1 WSW 14 17 - - - - - - - - - -
18/02:30pm 17.1 WSW 18 22 - - - - - - - - - -
18/02:00pm 17.1 WSW 17 21 - - - - - - - - - -
18/01:30pm 17.1 WSW 16 20 - - - - - - - - - -
18/01:00pm 17.1 WSW 16 20 - - - - - - - - - -
18/12:30pm 17.3 WSW 17 20 - - - - - - - - - -
18/12:00pm 17.3 WSW 16 19 - - - - - - - - - -
18/11:30am 17.0 WSW 14 19 - - - - - - - - - -
18/11:00am 17.1 WSW 15 20 - - - - - - - - - -
18/10:30am 17.4 WSW 13 17 - - - - - - - - - -
18/10:00am 17.2 SW 6 10 - - - - - - - - - -
18/09:30am 17.5 SW 9 13 - - - - - - - - - -
18/09:00am 17.8 SSW 10 18 - - - - - - - - - -
18/08:30am 16.9 SW 9 13 - - - - - - - - - -
18/08:00am 16.7 SSW 9 16 - - - - - - - - - -
18/07:30am 16.6 SW 9 13 - - - - - - - - - -
18/07:00am 16.6 SW 9 13 - - - - - - - - - -
18/06:30am 16.6 SW 9 13 - - - - - - - - - -
18/06:00am 16.5 SW 9 13 - - - - - - - - - -
18/05:30am 17.0 SW 11 18 - - - - - - - - - -
18/05:00am 17.0 SSW 4 8 - - - - - - - - - -
18/04:30am 17.1 SW 6 9 - - - - - - - - - -
18/04:00am 17.4 SW 7 9 - - - - - - - - - -
18/03:30am 18.1 SW 7 10 - - - - - - - - - -
18/03:00am 18.5 SW 8 14 - - - - - - - - - -
18/02:30am 19.1 WSW 13 17 - - - - - - - - - -
18/02:00am 19.5 SW 6 10 - - - - - - - - - -
18/01:30am 20.9 WSW 8 13 - - - - - - - - - -
18/01:00am 21.2 NE 2 5 - - - - - - - - - -
18/12:30am 21.5 SE 3 5 - - - - - - - - - -
18/12:00am 21.6 ESE 5 8 - - - - - - - - - -
 
Date/Time
EDT
Temp
°C
Wind Pressure Rain since
9am
mm
Weather Cloud Vis
km
Sea
Height
m
Swell
Dir  Spd
kts
Gust
kts
hPa Trend Height
m
Period
s
Dir
17/11:30pm 22.3 SSE 3 8 - - - - - - - - - -
17/11:00pm 22.3 SSW 10 14 - - - - - - - - - -
17/10:30pm 22.6 SW 11 16 - - - - - - - - - -
17/10:00pm 23.1 SW 11 15 - - - - - - - - - -
17/09:30pm 24.8 SW 13 19 - - - - - - - - - -
17/09:00pm 24.7 SW 6 13 - - - - - - - - - -
17/08:30pm 24.6 SSW 8 14 - - - - - - - - - -
17/08:00pm 25.2 SSE 7 13 - - - - - - - - - -
17/07:30pm 26.2 SSE 7 12 - - - - - - - - - -
17/07:00pm 28.5 SSE 5 9 - - - - - - - - - -
17/06:30pm 29.4 S 5 9 - - - - - - - - - -
17/06:00pm 29.6 SSE 6 9 - - - - - - - - - -
17/05:30pm 30.6 SSE 6 9 - - - - - - - - - -
17/05:00pm 31.6 SSE 5 9 - - - - - - - - - -
17/04:30pm 28.9 WSW 9 11 - - - - - - - - - -
17/04:00pm 31.4 W 2 3 - - - - - - - - - -
17/03:30pm 31.6 WSW 5 7 - - - - - - - - - -
17/03:00pm 31.4 WSW 7 9 - - - - - - - - - -
17/02:30pm 30.5 WSW 6 10 - - - - - - - - - -
17/02:00pm 30.7 WSW 9 11 - - - - - - - - - -
17/01:30pm 30.6 WSW 9 11 - - - - - - - - - -
17/01:00pm 30.6 WSW 12 18 - - - - - - - - - -
17/12:30pm 30.0 WSW 10 12 - - - - - - - - - -
17/12:00pm 27.7 WSW 9 10 - - - - - - - - - -
17/11:30am 26.5 WSW 5 7 - - - - - - - - - -
17/11:00am 25.2 CALM 0 0 - - - - - - - - - -
17/10:30am 22.0 CALM 0 0 - - - - - - - - - -
17/10:00am 22.5 CALM 0 0 - - - - - - - - - -
17/09:30am 21.5 CALM 0 0 - - - - - - - - - -
17/09:00am 21.8 NNE 3 4 - - - - - - - - - -
17/08:30am 21.8 CALM 0 0 - - - - - - - - - -
17/08:00am 21.4 NNE 1 3 - - - - - - - - - -
17/07:30am 21.5 CALM 0 0 - - - - - - - - - -
17/07:00am 21.7 CALM 0 0 - - - - - - - - - -
17/06:30am 21.7 W 1 2 - - - - - - - - - -
17/06:00am 21.8 WSW 5 6 - - - - - - - - - -
17/05:30am 22.3 WSW 5 6 - - - - - - - - - -
17/05:00am 22.3 WSW 5 7 - - - - - - - - - -
17/04:30am 21.4 SW 1 5 - - - - - - - - - -
17/04:00am 21.3 CALM 0 0 - - - - - - - - - -
17/03:30am 21.2 CALM 0 0 - - - - - - - - - -
17/03:00am 21.3 CALM 0 0 - - - - - - - - - -
17/02:30am 21.8 ENE 1 3 - - - - - - - - - -
17/02:00am 21.4 E 3 5 - - - - - - - - - -
17/01:30am 21.7 ESE 6 9 - - - - - - - - - -
17/01:00am 21.8 E 4 7 - - - - - - - - - -
17/12:30am 23.0 E 4 7 - - - - - - - - - -
17/12:00am 23.4 ESE 4 8 - - - - - - - - - -
 
Date/Time
EDT
Temp
°C
Wind Pressure Rain since
9am
mm
Weather Cloud Vis
km
Sea
Height
m
Swell
Dir  Spd
kts
Gust
kts
hPa Trend Height
m
Period
s
Dir
16/11:30pm 24.0 SE 6 10 - - - - - - - - - -
16/11:00pm 24.4 SSE 6 9 - - - - - - - - - -
16/10:30pm 24.1 SSE 4 8 - - - - - - - - - -
16/10:00pm 24.8 ESE 3 6 - - - - - - - - - -
16/09:30pm 25.0 ESE 5 8 - - - - - - - - - -
16/09:00pm 24.8 ESE 5 8 - - - - - - - - - -
16/08:30pm 25.1 ESE 4 7 - - - - - - - - - -
16/08:00pm 26.5 SE 5 8 - - - - - - - - - -
16/07:30pm 26.7 SSE 5 9 - - - - - - - - - -
16/07:00pm 27.9 SSE 6 9 - - - - - - - - - -
16/06:30pm 28.8 SSE 6 10 - - - - - - - - - -
16/06:00pm 29.5 SSE 5 10 - - - - - - - - - -
16/05:47pm 29.6 SSE 4 8 - - - - - - - - - -
16/05:30pm 24.6 WSW 7 8 - - - - - - - - - -
16/05:00pm 25.9 W 3 4 - - - - - - - - - -
16/04:30pm 26.4 W 4 5 - - - - - - - - - -
16/04:00pm 26.1 WSW 6 7 - - - - - - - - - -
16/03:30pm 25.8 WSW 7 8 - - - - - - - - - -
16/03:00pm 24.3 WSW 7 8 - - - - - - - - - -
16/02:30pm 23.6 W 6 7 - - - - - - - - - -
16/02:00pm 22.4 WSW 4 5 - - - - - - - - - -
16/01:30pm 20.7 WSW 5 7 - - - - - - - - - -
16/01:00pm 19.5 WSW 7 8 - - - - - - - - - -
16/12:30pm 19.0 WSW 4 5 - - - - - - - - - -
16/12:00pm 18.6 NW 3 3 - - - - - - - - - -
16/11:30am 18.2 NNW 3 4 - - - - - - - - - -
16/11:00am 17.6 NW 3 4 - - - - - - - - - -
16/10:30am 17.1 WNW 4 5 - - - - - - - - - -
16/10:00am 17.9 NNE 3 5 - - - - - - - - - -
16/09:30am 17.0 ENE 2 4 - - - - - - - - - -
16/09:00am 16.3 ESE 3 4 - - - - - - - - - -
16/08:30am 15.6 ENE 4 5 - - - - - - - - - -
16/08:00am 15.1 E 3 5 - - - - - - - - - -
16/07:30am 14.2 E 3 5 - - - - - - - - - -
16/07:00am 13.1 ESE 3 4 - - - - - - - - - -
16/06:30am 12.3 ESE 4 4 - - - - - - - - - -
16/06:00am 12.3 ESE 3 4 - - - - - - - - - -
16/05:30am 12.4 ESE 4 5 - - - - - - - - - -
16/05:00am 12.4 ESE 3 4 - - - - - - - - - -
16/04:30am 12.3 ESE 3 5 - - - - - - - - - -
16/04:00am 12.4 ESE 3 4 - - - - - - - - - -
16/03:30am 12.7 E 4 6 - - - - - - - - - -
16/03:00am 13.3 ESE 3 3 - - - - - - - - - -
16/02:30am 13.3 ESE 2 2 - - - - - - - - - -
16/02:00am 13.4 SE 2 3 - - - - - - - - - -
16/01:30am 13.8 S 3 5 - - - - - - - - - -
16/01:00am 13.6 SSE 3 4 - - - - - - - - - -

Other Formats:

Comma delimited format used in spreadsheet applications
http://www.bom.gov.au/fwo/IDV60701/IDV60701.94871.axf

JavaScript Object Notation format (JSON) in row-major order
http://www.bom.gov.au/fwo/IDV60701/IDV60701.94871.json